createdAt,value
2022-07-28T00:00:02.377Z,1.60
2022-07-28T00:00:15.883Z,1.60
2022-07-28T00:00:28.930Z,1.40
2022-07-28T00:00:41.847Z,1.40
2022-07-28T00:00:54.994Z,1.40
2022-07-28T00:01:07.976Z,1.30
2022-07-28T00:01:20.836Z,1.30
2022-07-28T00:01:33.845Z,1.50
2022-07-28T00:01:46.787Z,1.48
2022-07-28T00:01:59.817Z,1.52
2022-07-28T00:02:12.848Z,1.40
2022-07-28T00:02:25.877Z,1.45
2022-07-28T00:02:38.941Z,1.50
2022-07-28T00:02:51.870Z,1.40
2022-07-28T00:03:04.879Z,1.30
2022-07-28T00:03:17.862Z,1.42
2022-07-28T00:03:30.916Z,1.60
2022-07-28T00:03:46.111Z,1.60
2022-07-28T00:03:59.019Z,1.40
2022-07-28T00:04:12.206Z,1.33
2022-07-28T00:04:25.435Z,1.45
2022-07-28T00:04:38.320Z,1.33
2022-07-28T00:04:51.197Z,1.30
2022-07-28T00:05:04.832Z,1.35
2022-07-28T00:05:17.709Z,1.60
2022-07-28T00:05:30.589Z,1.70
2022-07-28T00:05:43.998Z,1.50
2022-07-28T00:05:56.879Z,1.30
2022-07-28T00:06:09.884Z,1.30
2022-07-28T00:06:22.840Z,1.40
2022-07-28T00:06:35.736Z,1.50
2022-07-28T00:06:48.628Z,1.40
2022-07-28T00:07:01.484Z,1.20
2022-07-28T00:07:14.389Z,1.40
2022-07-28T00:07:27.246Z,1.48
2022-07-28T00:07:40.243Z,1.42
2022-07-28T00:07:53.097Z,1.40
2022-07-28T00:08:06.244Z,1.30
2022-07-28T00:08:19.129Z,1.40
2022-07-28T00:08:32.017Z,1.40
2022-07-28T00:08:45.057Z,1.30
2022-07-28T00:08:58.082Z,1.37
2022-07-28T00:09:11.082Z,1.30
2022-07-28T00:09:24.218Z,1.20
2022-07-28T00:09:37.351Z,1.40
2022-07-28T00:09:50.206Z,1.50
2022-07-28T00:10:03.451Z,1.40
2022-07-28T00:10:36.269Z,1.45
2022-07-28T00:10:49.150Z,1.40
2022-07-28T00:11:02.039Z,1.40
2022-07-28T00:11:15.346Z,1.33
2022-07-28T00:11:28.381Z,1.35
2022-07-28T00:11:51.451Z,1.40
2022-07-28T00:12:08.156Z,1.40
2022-07-28T00:12:21.046Z,1.40
2022-07-28T00:12:33.982Z,1.40
2022-07-28T00:12:46.839Z,1.40
2022-07-28T00:13:02.721Z,1.50
2022-07-28T00:13:19.542Z,1.48
2022-07-28T00:13:32.570Z,1.40
2022-07-28T00:13:45.497Z,1.30
2022-07-28T00:13:58.391Z,1.20
2022-07-28T00:14:11.462Z,1.37
2022-07-28T00:14:24.677Z,1.25
2022-07-28T00:14:37.506Z,1.40
2022-07-28T00:14:50.361Z,1.40
2022-07-28T00:15:03.316Z,1.40
2022-07-28T00:15:16.178Z,1.40
2022-07-28T00:15:33.706Z,1.30
2022-07-28T00:15:46.685Z,1.30
2022-07-28T00:16:00.641Z,1.40
2022-07-28T00:16:13.648Z,1.30
2022-07-28T00:16:26.631Z,1.35
2022-07-28T00:16:39.833Z,1.30
2022-07-28T00:16:52.747Z,1.40
2022-07-28T00:17:05.661Z,1.30
2022-07-28T00:17:18.566Z,1.30
2022-07-28T00:17:31.760Z,1.30
2022-07-28T00:17:44.659Z,1.30
2022-07-28T00:17:57.564Z,1.58
2022-07-28T00:18:10.445Z,1.60
2022-07-28T00:18:23.340Z,1.60
2022-07-28T00:18:36.275Z,1.60
2022-07-28T00:18:49.147Z,1.50
2022-07-28T00:19:02.150Z,1.40
2022-07-28T00:19:15.052Z,1.30
2022-07-28T00:19:27.917Z,1.20
2022-07-28T00:19:40.792Z,1.30
2022-07-28T00:19:53.690Z,1.40
2022-07-28T00:20:07.204Z,1.35
2022-07-28T00:20:21.042Z,1.40
2022-07-28T00:20:33.884Z,1.30
2022-07-28T00:20:46.799Z,1.25
2022-07-28T00:20:59.878Z,1.35
2022-07-28T00:21:12.798Z,1.40
2022-07-28T00:21:25.668Z,1.40
2022-07-28T00:21:38.589Z,1.30
2022-07-28T00:21:51.451Z,1.30
2022-07-28T00:22:07.577Z,1.35
2022-07-28T00:22:20.570Z,1.40
2022-07-28T00:22:40.849Z,1.40
2022-07-28T00:22:53.744Z,1.50
2022-07-28T00:23:07.354Z,1.50
2022-07-28T00:23:20.284Z,1.30
2022-07-28T00:23:52.652Z,1.60
2022-07-28T00:24:06.003Z,1.60
2022-07-28T00:24:19.100Z,1.55
2022-07-28T00:24:32.419Z,1.50
2022-07-28T00:24:45.469Z,1.40
2022-07-28T00:24:58.727Z,1.30
2022-07-28T00:25:11.678Z,1.20
2022-07-28T00:25:24.672Z,1.30
2022-07-28T00:25:37.542Z,1.37
2022-07-28T00:25:50.425Z,1.40
2022-07-28T00:26:03.339Z,1.50
2022-07-28T00:26:16.249Z,1.60
2022-07-28T00:26:29.136Z,1.50
2022-07-28T00:26:41.991Z,1.48
2022-07-28T00:26:54.886Z,1.50
2022-07-28T00:27:07.784Z,1.50
2022-07-28T00:27:20.667Z,1.30
2022-07-28T00:27:33.551Z,1.27
2022-07-28T00:27:46.397Z,1.30
2022-07-28T00:27:59.307Z,1.30
2022-07-28T00:28:12.181Z,1.30
2022-07-28T00:28:25.077Z,1.33
2022-07-28T00:28:37.960Z,1.30
2022-07-28T00:28:50.864Z,1.40
2022-07-28T00:29:07.643Z,1.45
2022-07-28T00:29:20.974Z,1.50
2022-07-28T00:29:49.831Z,1.45
2022-07-28T00:30:05.755Z,1.30
2022-07-28T00:30:18.869Z,1.33
2022-07-28T00:30:31.791Z,1.50
2022-07-28T00:30:44.724Z,1.50
2022-07-28T00:30:57.691Z,1.50
2022-07-28T00:31:18.052Z,1.60
2022-07-28T00:31:31.144Z,1.55
2022-07-28T00:31:44.120Z,1.50
2022-07-28T00:31:57.319Z,1.58
2022-07-28T00:32:10.368Z,1.50
2022-07-28T00:32:27.988Z,1.40
2022-07-28T00:32:41.560Z,1.37
2022-07-28T00:32:54.815Z,1.35
2022-07-28T00:33:07.696Z,1.30
2022-07-28T00:33:20.600Z,1.30
2022-07-28T00:33:33.430Z,1.30
2022-07-28T00:33:46.283Z,1.48
2022-07-28T00:33:59.343Z,1.50
2022-07-28T00:34:12.621Z,1.50
2022-07-28T00:34:26.692Z,1.40
2022-07-28T00:34:48.765Z,1.35
2022-07-28T00:35:08.245Z,1.48
2022-07-28T00:35:30.331Z,1.50
2022-07-28T00:35:48.423Z,1.55
2022-07-28T00:36:01.794Z,1.50
2022-07-28T00:36:14.670Z,1.60
2022-07-28T00:36:27.884Z,1.58
2022-07-28T00:36:41.132Z,1.55
2022-07-28T00:36:54.023Z,1.60
2022-07-28T00:37:07.105Z,1.50
2022-07-28T00:37:19.989Z,1.48
2022-07-28T00:37:32.890Z,1.58
2022-07-28T00:37:45.821Z,1.60
2022-07-28T00:38:02.075Z,1.48
2022-07-28T00:38:14.950Z,1.48
2022-07-28T00:38:28.273Z,1.60
2022-07-28T00:38:44.443Z,1.60
2022-07-28T00:39:01.676Z,1.52
2022-07-28T00:39:15.129Z,1.75
2022-07-28T00:39:27.989Z,2.00
2022-07-28T00:39:40.865Z,1.95
2022-07-28T00:39:53.761Z,1.77
2022-07-28T00:40:07.686Z,1.67
2022-07-28T00:40:20.741Z,1.60
2022-07-28T00:40:52.219Z,1.70
2022-07-28T00:41:11.363Z,1.52
2022-07-28T00:41:24.410Z,1.60
2022-07-28T00:41:37.310Z,1.50
2022-07-28T00:41:50.704Z,1.48
2022-07-28T00:42:03.855Z,1.50
2022-07-28T00:42:20.328Z,1.60
2022-07-28T00:42:33.192Z,1.55
2022-07-28T00:42:46.186Z,1.52
2022-07-28T00:42:59.043Z,1.50
2022-07-28T00:43:15.842Z,1.50
2022-07-28T00:43:50.106Z,1.42
2022-07-28T00:44:05.674Z,1.50
2022-07-28T00:44:18.758Z,1.50
2022-07-28T00:44:31.769Z,1.55
2022-07-28T00:44:44.882Z,1.58
2022-07-28T00:44:58.134Z,1.60
2022-07-28T00:45:11.342Z,1.60
2022-07-28T00:45:24.210Z,1.50
2022-07-28T00:45:37.067Z,1.40
2022-07-28T00:45:50.022Z,1.33
2022-07-28T00:46:03.000Z,1.60
2022-07-28T00:46:18.593Z,1.60
2022-07-28T00:46:32.123Z,1.50
2022-07-28T00:46:45.469Z,1.60
2022-07-28T00:46:59.508Z,1.60
2022-07-28T00:47:14.890Z,1.55
2022-07-28T00:47:27.722Z,1.67
2022-07-28T00:47:47.086Z,1.60
2022-07-28T00:48:00.286Z,1.50
2022-07-28T00:48:13.511Z,1.52
2022-07-28T00:48:26.587Z,1.58
2022-07-28T00:48:40.574Z,1.52
2022-07-28T00:48:58.191Z,1.52
2022-07-28T00:49:11.635Z,1.70
2022-07-28T00:49:44.300Z,1.77
2022-07-28T00:49:57.626Z,1.62
2022-07-28T00:50:12.551Z,1.50
2022-07-28T00:50:45.387Z,1.65
2022-07-28T00:50:58.498Z,1.50
2022-07-28T00:51:11.662Z,1.60
2022-07-28T00:51:25.484Z,1.70
2022-07-28T00:51:40.552Z,1.60
2022-07-28T00:51:53.432Z,1.60
2022-07-28T00:52:07.728Z,1.60
2022-07-28T00:52:20.615Z,1.77
2022-07-28T00:52:33.679Z,1.70
2022-07-28T00:53:05.323Z,1.60
2022-07-28T00:53:28.005Z,1.60
2022-07-28T00:53:41.080Z,1.67
2022-07-28T00:53:58.260Z,1.70
2022-07-28T00:54:11.427Z,1.60
2022-07-28T00:54:24.560Z,1.60
2022-07-28T00:54:37.935Z,1.75
2022-07-28T00:54:50.811Z,1.60
2022-07-28T00:55:04.993Z,1.70
2022-07-28T00:55:18.263Z,1.65
2022-07-28T00:55:32.192Z,1.62
2022-07-28T00:56:06.952Z,1.60
2022-07-28T00:56:22.510Z,1.60
2022-07-28T00:56:35.433Z,1.60
2022-07-28T00:56:48.293Z,1.70
2022-07-28T00:57:09.375Z,1.70
2022-07-28T00:57:22.402Z,1.73
2022-07-28T00:57:35.496Z,1.75
2022-07-28T00:57:48.347Z,1.50
2022-07-28T00:58:18.270Z,1.50
2022-07-28T00:58:31.575Z,1.48
2022-07-28T00:58:45.019Z,1.50
2022-07-28T00:59:14.067Z,1.70
2022-07-28T00:59:26.949Z,1.80
2022-07-28T00:59:39.856Z,1.75
2022-07-28T00:59:52.765Z,1.58
2022-07-28T01:00:06.377Z,1.45
2022-07-28T01:00:19.282Z,1.40
2022-07-28T01:00:32.140Z,1.52
2022-07-28T01:00:45.025Z,1.60
2022-07-28T01:00:57.910Z,1.67
2022-07-28T01:01:11.508Z,1.70
2022-07-28T01:01:24.497Z,1.70
2022-07-28T01:01:37.539Z,1.73
2022-07-28T01:01:50.813Z,1.65
2022-07-28T01:02:06.495Z,1.58
2022-07-28T01:02:19.680Z,1.50
2022-07-28T01:02:32.951Z,1.58
2022-07-28T01:02:49.057Z,1.60
2022-07-28T01:03:02.545Z,1.60
2022-07-28T01:03:15.643Z,1.60
2022-07-28T01:03:28.557Z,1.62
2022-07-28T01:04:01.856Z,1.70
2022-07-28T01:04:15.050Z,1.77
2022-07-28T01:04:28.309Z,1.70
2022-07-28T01:04:41.355Z,1.70
2022-07-28T01:04:54.325Z,1.50
2022-07-28T01:05:07.659Z,1.58
2022-07-28T01:05:43.964Z,1.70
2022-07-28T01:05:59.483Z,1.60
2022-07-28T01:06:46.508Z,1.70
2022-07-28T01:07:13.459Z,1.75
2022-07-28T01:07:37.602Z,1.50
2022-07-28T01:07:55.154Z,1.67
2022-07-28T01:08:13.717Z,1.90
2022-07-28T01:09:00.033Z,1.62
2022-07-28T01:09:42.055Z,1.67
2022-07-28T01:10:06.991Z,1.60
2022-07-28T01:10:31.445Z,1.80
2022-07-28T01:10:50.927Z,1.60
2022-07-28T01:11:14.082Z,1.50
2022-07-28T01:11:55.404Z,1.60
2022-07-28T01:12:27.937Z,1.70
2022-07-28T01:12:55.953Z,1.60
2022-07-28T01:13:16.141Z,1.80
2022-07-28T01:13:49.579Z,1.60
2022-07-28T01:14:10.756Z,1.60
2022-07-28T01:14:32.790Z,1.67
2022-07-28T01:14:50.340Z,1.70
2022-07-28T01:15:21.514Z,1.77
2022-07-28T01:15:44.469Z,1.85
2022-07-28T01:16:00.817Z,1.70
2022-07-28T01:16:30.124Z,1.70
2022-07-28T01:17:23.158Z,1.60
2022-07-28T01:17:40.137Z,1.60
2022-07-28T01:18:17.134Z,1.52
2022-07-28T01:18:33.977Z,1.50
2022-07-28T01:19:10.839Z,1.50
2022-07-28T01:20:07.751Z,1.70
2022-07-28T01:20:29.124Z,1.77
2022-07-28T01:20:48.219Z,1.80
2022-07-28T01:21:03.975Z,1.80
2022-07-28T01:21:18.181Z,1.80
2022-07-28T01:21:34.967Z,1.73
2022-07-28T01:21:48.024Z,1.70
2022-07-28T01:22:01.038Z,1.65
2022-07-28T01:22:16.631Z,1.65
2022-07-28T01:22:30.376Z,1.70
2022-07-28T01:23:08.995Z,1.83
2022-07-28T01:23:33.891Z,1.65
2022-07-28T01:24:03.275Z,1.67
2022-07-28T01:24:59.896Z,1.70
2022-07-28T01:25:23.819Z,1.80
2022-07-28T01:26:50.228Z,1.60
2022-07-28T01:27:06.202Z,1.80
2022-07-28T01:27:36.049Z,1.60
2022-07-28T01:27:48.793Z,1.65
2022-07-28T01:28:13.000Z,1.62
2022-07-28T01:28:36.515Z,1.75
2022-07-28T01:28:49.607Z,1.75
2022-07-28T01:29:03.911Z,1.73
2022-07-28T01:29:42.116Z,1.77
2022-07-28T01:30:04.349Z,1.73
2022-07-28T01:30:31.362Z,1.90
2022-07-28T01:30:46.450Z,1.98
2022-07-28T01:31:02.418Z,1.90
2022-07-28T01:31:20.036Z,1.90
2022-07-28T01:31:37.924Z,1.80
2022-07-28T01:32:21.553Z,1.60
2022-07-28T01:32:43.795Z,1.73
2022-07-28T01:33:00.083Z,1.55
2022-07-28T01:33:18.286Z,1.67
2022-07-28T01:33:34.154Z,1.67
2022-07-28T01:33:48.277Z,1.65
2022-07-28T01:34:06.204Z,1.65
2022-07-28T01:34:23.666Z,1.67
2022-07-28T01:53:21.332Z,1.90
2022-07-28T01:53:38.100Z,1.90
2022-07-28T01:53:52.110Z,1.80
2022-07-28T01:54:05.172Z,1.70
2022-07-28T01:54:18.423Z,1.80
2022-07-28T01:54:31.427Z,1.70
2022-07-28T01:54:44.569Z,1.58
2022-07-28T01:54:58.125Z,1.65
2022-07-28T01:55:12.091Z,1.70
2022-07-28T01:55:25.160Z,1.65
2022-07-28T01:55:38.589Z,1.60
2022-07-28T01:55:51.650Z,1.70
2022-07-28T01:56:05.679Z,1.62
2022-07-28T01:56:19.464Z,1.70
2022-07-28T01:56:32.784Z,1.80
2022-07-28T01:56:46.019Z,1.80
2022-07-28T01:56:59.452Z,1.80
2022-07-28T01:57:14.797Z,1.70
2022-07-28T01:57:30.106Z,1.65
2022-07-28T01:57:43.127Z,1.67
2022-07-28T01:57:56.126Z,1.67
2022-07-28T01:58:18.931Z,1.75
2022-07-28T01:58:32.375Z,1.62
2022-07-28T01:58:45.359Z,1.60
2022-07-28T01:59:00.264Z,1.77
2022-07-28T01:59:14.705Z,1.87
2022-07-28T01:59:28.440Z,1.70
2022-07-28T01:59:44.992Z,1.60
2022-07-28T01:59:58.503Z,1.75
2022-07-28T02:00:12.675Z,1.90
2022-07-28T02:00:25.738Z,1.70
2022-07-28T02:00:41.201Z,1.45
2022-07-28T02:00:54.098Z,1.70
2022-07-28T02:01:07.230Z,1.80
2022-07-28T02:01:20.258Z,1.60
2022-07-28T02:01:39.118Z,1.52
2022-07-28T02:01:52.161Z,1.70
2022-07-28T02:02:05.253Z,1.75
2022-07-28T02:02:18.177Z,1.60
2022-07-28T02:02:31.025Z,1.65
2022-07-28T02:02:44.464Z,1.70
2022-07-28T02:02:57.557Z,1.70
2022-07-28T02:03:11.930Z,1.70
2022-07-28T02:03:24.941Z,1.70
2022-07-28T02:03:37.841Z,1.92
2022-07-28T02:03:51.560Z,1.95
2022-07-28T02:04:08.588Z,1.80
2022-07-28T02:04:30.069Z,1.80
2022-07-28T02:04:43.093Z,1.80
2022-07-28T02:04:57.139Z,1.67
2022-07-28T02:05:11.425Z,1.70
2022-07-28T02:05:24.680Z,1.70
2022-07-28T02:05:37.809Z,1.77
2022-07-28T02:05:50.995Z,1.75
2022-07-28T02:06:03.972Z,1.70
2022-07-28T02:06:25.277Z,1.80
2022-07-28T02:06:38.332Z,1.73
2022-07-28T02:06:51.186Z,1.55
2022-07-28T02:07:04.297Z,1.60
2022-07-28T02:07:17.855Z,1.70
2022-07-28T02:07:34.539Z,1.67
2022-07-28T02:08:07.300Z,1.70
2022-07-28T02:08:20.736Z,1.62
2022-07-28T02:08:34.845Z,1.60
2022-07-28T02:08:47.898Z,1.70
2022-07-28T02:09:01.298Z,1.95
2022-07-28T02:09:16.049Z,1.90
2022-07-28T02:09:28.955Z,1.73
2022-07-28T02:09:43.458Z,1.50
2022-07-28T02:09:57.458Z,1.60
2022-07-28T02:10:11.614Z,1.75
2022-07-28T02:10:34.322Z,1.77
2022-07-28T02:11:11.024Z,1.73
2022-07-28T02:11:42.149Z,1.67
2022-07-28T02:11:55.229Z,1.80
2022-07-28T02:12:09.372Z,1.77
2022-07-28T02:12:22.775Z,1.75
2022-07-28T02:12:35.875Z,1.75
2022-07-28T02:12:49.054Z,1.70
2022-07-28T02:13:02.424Z,1.83
2022-07-28T02:13:15.445Z,1.90
2022-07-28T02:13:31.394Z,1.60
2022-07-28T02:13:44.819Z,1.67
2022-07-28T02:13:58.070Z,1.70
2022-07-28T02:14:15.654Z,1.60
2022-07-28T02:14:33.043Z,1.73
2022-07-28T02:14:49.525Z,1.87
2022-07-28T02:15:02.617Z,1.87
2022-07-28T02:15:15.652Z,1.80
2022-07-28T02:15:29.034Z,1.60
2022-07-28T02:15:42.126Z,1.60
2022-07-28T02:15:55.066Z,1.67
2022-07-28T02:16:08.967Z,1.80
2022-07-28T02:16:23.253Z,1.70
2022-07-28T02:16:36.287Z,1.52
2022-07-28T02:16:59.397Z,1.50
2022-07-28T02:17:14.339Z,1.50
2022-07-28T02:17:29.726Z,1.60
2022-07-28T02:17:44.088Z,1.70
2022-07-28T02:17:56.955Z,1.70
2022-07-28T02:18:10.488Z,1.70
2022-07-28T02:18:23.672Z,1.60
2022-07-28T02:18:36.710Z,1.55
2022-07-28T02:18:49.715Z,1.73
2022-07-28T02:19:02.575Z,1.60
2022-07-28T02:19:15.833Z,1.52
2022-07-28T02:19:29.539Z,1.52
2022-07-28T02:19:42.968Z,1.60
2022-07-28T02:20:00.175Z,1.70
2022-07-28T02:20:13.637Z,1.73
2022-07-28T02:20:31.122Z,1.70
2022-07-28T02:21:04.032Z,1.75
2022-07-28T02:21:17.104Z,1.70
2022-07-28T02:21:30.347Z,1.67
2022-07-28T02:21:43.222Z,1.75
2022-07-28T02:21:56.156Z,1.80
2022-07-28T02:22:09.309Z,1.70
2022-07-28T02:22:22.205Z,1.62
2022-07-28T02:22:35.260Z,1.67
2022-07-28T02:22:51.346Z,1.60
2022-07-28T02:23:05.054Z,1.45
2022-07-28T02:23:17.943Z,1.58
2022-07-28T02:23:30.836Z,1.70
2022-07-28T02:23:43.867Z,1.80
2022-07-28T02:23:57.391Z,1.80
2022-07-28T02:24:10.526Z,1.77
2022-07-28T02:24:26.599Z,1.67
2022-07-28T02:24:39.540Z,1.70
2022-07-28T02:24:53.976Z,1.70
2022-07-28T02:25:07.709Z,1.62
2022-07-28T02:25:21.114Z,1.60
2022-07-28T02:25:33.992Z,1.70
2022-07-28T02:25:46.845Z,1.80
2022-07-28T02:26:00.636Z,1.73
2022-07-28T02:26:13.732Z,1.70
2022-07-28T02:26:28.926Z,1.73
2022-07-28T02:26:44.351Z,1.60
2022-07-28T02:27:04.347Z,1.60
2022-07-28T02:27:21.982Z,1.70
2022-07-28T02:27:37.646Z,1.77
2022-07-28T02:27:57.241Z,1.80
2022-07-28T02:28:10.086Z,1.60
2022-07-28T02:28:23.265Z,1.65
2022-07-28T02:28:39.280Z,1.77
2022-07-28T02:28:52.814Z,1.77
2022-07-28T02:29:06.724Z,1.90
2022-07-28T02:29:48.040Z,2.00
2022-07-28T02:30:00.146Z,1.90
2022-07-28T02:30:18.441Z,1.95
2022-07-28T02:30:47.298Z,1.80
2022-07-28T02:31:04.590Z,1.75
2022-07-28T02:31:20.756Z,1.70
2022-07-28T02:31:41.099Z,1.77
2022-07-28T02:31:58.903Z,1.90
2022-07-28T02:32:27.380Z,1.83
2022-07-28T02:32:50.961Z,1.75
2022-07-28T02:33:59.311Z,1.50
2022-07-28T02:34:02.370Z,1.70
2022-07-28T02:34:27.964Z,1.75
2022-07-28T02:34:40.949Z,1.80
2022-07-28T02:34:59.040Z,1.80
2022-07-28T02:35:34.615Z,1.95
2022-07-28T02:36:07.868Z,1.62
2022-07-28T02:36:33.116Z,1.92
2022-07-28T02:36:51.075Z,1.73
2022-07-28T02:37:04.423Z,1.60
2022-07-28T02:37:17.937Z,1.62
2022-07-28T02:37:36.633Z,1.70
2022-07-28T02:37:53.882Z,1.80
2022-07-28T02:38:07.875Z,1.70
2022-07-28T02:38:25.084Z,1.70
2022-07-28T02:38:43.649Z,1.80
2022-07-28T02:39:07.383Z,1.80
2022-07-28T02:39:25.422Z,1.75
2022-07-28T02:39:55.269Z,1.73
2022-07-28T02:40:14.529Z,1.50
2022-07-28T02:40:30.406Z,1.60
2022-07-28T02:40:43.533Z,1.70
2022-07-28T02:41:05.680Z,1.80
2022-07-28T02:41:28.548Z,1.70
2022-07-28T02:41:42.481Z,1.80
2022-07-28T02:42:23.091Z,1.70
2022-07-28T02:42:36.030Z,1.70
2022-07-28T02:42:50.145Z,1.80
2022-07-28T02:43:03.931Z,1.77
2022-07-28T02:43:18.142Z,1.80
2022-07-28T02:43:50.054Z,1.83
2022-07-28T02:44:07.647Z,1.85
2022-07-28T02:44:23.469Z,1.95
2022-07-28T02:44:44.090Z,1.75
2022-07-28T02:45:02.073Z,1.67
2022-07-28T02:45:16.216Z,1.50
2022-07-28T02:45:34.092Z,1.60
2022-07-28T02:45:48.338Z,1.75
2022-07-28T02:46:03.066Z,1.80
2022-07-28T02:46:23.960Z,1.75
2022-07-28T02:46:38.840Z,1.75
2022-07-28T02:46:52.793Z,1.70
2022-07-28T02:47:06.888Z,1.73
2022-07-28T02:47:22.795Z,1.80
2022-07-28T02:47:38.849Z,1.87
2022-07-28T02:47:53.405Z,2.00
2022-07-28T02:48:08.377Z,1.80
2022-07-28T02:48:24.893Z,1.70
2022-07-28T02:48:40.990Z,1.70
2022-07-28T02:48:59.971Z,1.60
2022-07-28T02:49:19.683Z,1.52
2022-07-28T02:49:37.036Z,1.70
2022-07-28T02:49:52.147Z,1.70
2022-07-28T02:50:05.863Z,1.75
2022-07-28T02:50:21.154Z,1.87
2022-07-28T02:50:42.837Z,1.75
2022-07-28T02:50:56.562Z,1.62
2022-07-28T02:51:09.861Z,1.60
2022-07-28T02:51:24.138Z,1.62
2022-07-28T02:51:37.063Z,1.85
2022-07-28T02:51:49.940Z,1.90
2022-07-28T02:52:04.886Z,1.75
2022-07-28T02:52:18.574Z,1.60
2022-07-28T02:52:31.646Z,1.70
2022-07-28T02:52:44.791Z,1.80
2022-07-28T02:53:15.456Z,1.73
2022-07-28T02:53:35.467Z,1.73
2022-07-28T02:53:48.316Z,1.60
2022-07-28T02:54:01.416Z,1.67
2022-07-28T02:54:14.749Z,1.70
2022-07-28T02:54:28.972Z,1.70
2022-07-28T02:54:42.276Z,1.73
2022-07-28T02:54:55.359Z,1.73
2022-07-28T02:55:08.988Z,1.73
2022-07-28T02:55:21.917Z,1.75
2022-07-28T02:55:35.245Z,1.80
2022-07-28T02:55:48.352Z,1.70
2022-07-28T02:56:01.234Z,1.62
2022-07-28T02:56:16.393Z,1.77
2022-07-28T02:56:29.394Z,1.90
2022-07-28T02:56:42.305Z,1.73
2022-07-28T02:57:06.525Z,1.80
2022-07-28T02:57:21.370Z,1.80
2022-07-28T02:57:34.373Z,1.77
2022-07-28T02:57:56.489Z,1.60
2022-07-28T02:58:10.712Z,1.60
2022-07-28T02:58:24.645Z,1.90
2022-07-28T02:58:38.623Z,1.90
2022-07-28T02:58:55.433Z,1.98
2022-07-28T02:59:09.342Z,1.90
2022-07-28T02:59:22.402Z,1.62
2022-07-28T02:59:35.400Z,1.60
2022-07-28T02:59:48.314Z,1.80
2022-07-28T03:00:01.200Z,1.80
2022-07-28T03:00:14.676Z,1.83
2022-07-28T03:00:27.578Z,1.62
2022-07-28T03:00:40.436Z,1.65
2022-07-28T03:00:53.629Z,1.73
2022-07-28T03:01:06.615Z,1.70
2022-07-28T03:01:20.047Z,1.60
2022-07-28T03:01:33.102Z,1.70
2022-07-28T03:01:47.240Z,1.77
2022-07-28T03:02:00.205Z,1.80
2022-07-28T03:02:13.157Z,1.83
2022-07-28T03:02:26.067Z,1.70
2022-07-28T03:02:38.918Z,1.60
2022-07-28T03:02:52.756Z,1.50
2022-07-28T03:03:05.649Z,1.62
2022-07-28T03:03:18.534Z,1.87
2022-07-28T03:03:31.384Z,1.77
2022-07-28T03:03:44.322Z,1.60
2022-07-28T03:03:57.262Z,1.70
2022-07-28T03:04:11.023Z,1.80
2022-07-28T03:04:43.044Z,1.70
2022-07-28T03:04:57.013Z,1.80
2022-07-28T03:05:11.689Z,1.55
2022-07-28T03:05:25.057Z,1.60
2022-07-28T03:05:41.290Z,1.70
2022-07-28T03:06:18.452Z,1.70
2022-07-28T03:06:31.397Z,1.95
2022-07-28T03:06:44.411Z,2.00
2022-07-28T03:06:57.434Z,1.95
2022-07-28T03:07:11.382Z,1.80
2022-07-28T03:07:29.071Z,1.70
2022-07-28T03:07:52.618Z,1.80
2022-07-28T03:08:06.081Z,1.70
2022-07-28T03:08:19.043Z,1.80
2022-07-28T03:08:32.002Z,1.90
2022-07-28T03:08:44.897Z,1.90
2022-07-28T03:08:57.877Z,1.87
2022-07-28T03:09:11.914Z,1.90
2022-07-28T03:09:24.960Z,1.80
2022-07-28T03:09:41.778Z,1.70
2022-07-28T03:09:55.560Z,1.55
2022-07-28T03:10:09.622Z,1.73
2022-07-28T03:10:32.721Z,1.75
2022-07-28T03:10:48.260Z,1.90
2022-07-28T03:11:11.270Z,1.85
2022-07-28T03:11:24.130Z,1.90
2022-07-28T03:11:51.880Z,1.80
2022-07-28T03:12:05.991Z,1.80
2022-07-28T03:12:19.033Z,1.73
2022-07-28T03:12:33.010Z,1.80
2022-07-28T03:12:46.690Z,1.77
2022-07-28T03:13:00.597Z,1.70
2022-07-28T03:13:13.619Z,1.70
2022-07-28T03:13:26.633Z,1.75
2022-07-28T03:13:39.691Z,1.60
2022-07-28T03:13:52.754Z,1.65
2022-07-28T03:14:09.519Z,1.73
2022-07-28T03:14:22.565Z,1.70
2022-07-28T03:14:35.685Z,1.80
2022-07-28T03:14:49.251Z,1.80
2022-07-28T03:15:02.279Z,1.70
2022-07-28T03:15:16.253Z,1.67
2022-07-28T03:15:29.218Z,1.70
2022-07-28T03:15:46.830Z,2.03
2022-07-28T03:15:59.700Z,2.12
2022-07-28T03:16:14.152Z,2.00
2022-07-28T03:16:27.308Z,1.80
2022-07-28T03:16:40.343Z,1.77
2022-07-28T03:16:55.800Z,1.70
2022-07-28T03:17:09.863Z,1.77
2022-07-28T03:17:22.874Z,1.70
2022-07-28T03:17:35.845Z,1.70
2022-07-28T03:17:48.690Z,1.60
2022-07-28T03:18:02.157Z,1.80
2022-07-28T03:18:15.017Z,1.90
2022-07-28T03:18:29.140Z,1.85
2022-07-28T03:18:42.065Z,1.70
2022-07-28T03:18:54.981Z,1.80
2022-07-28T03:19:08.204Z,1.90
2022-07-28T03:19:21.065Z,1.90
2022-07-28T03:19:33.938Z,1.73
2022-07-28T03:19:46.811Z,1.58
2022-07-28T03:19:59.691Z,1.55
2022-07-28T03:20:12.716Z,1.80
2022-07-28T03:20:25.734Z,1.92
2022-07-28T03:20:38.630Z,1.73
2022-07-28T03:20:51.480Z,1.77
2022-07-28T03:21:04.421Z,1.80
2022-07-28T03:21:17.274Z,1.73
2022-07-28T03:21:30.162Z,1.70
2022-07-28T03:21:43.070Z,1.87
2022-07-28T03:21:56.344Z,1.80
2022-07-28T03:22:10.530Z,1.67
2022-07-28T03:22:23.584Z,1.70
2022-07-28T03:22:36.471Z,1.77
2022-07-28T03:22:49.667Z,1.73
2022-07-28T03:23:02.553Z,1.80
2022-07-28T03:23:15.805Z,1.85
2022-07-28T03:23:42.572Z,1.90
2022-07-28T03:23:55.480Z,1.90
2022-07-28T03:24:08.552Z,1.83
2022-07-28T03:24:25.403Z,1.80
2022-07-28T03:24:42.085Z,1.80
2022-07-28T03:24:54.965Z,1.80
2022-07-28T03:25:19.902Z,1.85
2022-07-28T03:25:38.429Z,1.85
2022-07-28T03:25:51.607Z,1.77
2022-07-28T03:26:13.107Z,1.83
2022-07-28T03:26:33.132Z,1.70
2022-07-28T03:26:49.968Z,1.60
2022-07-28T03:27:32.058Z,1.58
2022-07-28T03:27:46.764Z,1.70
2022-07-28T03:27:59.930Z,1.60
2022-07-28T03:28:15.191Z,1.52
2022-07-28T03:28:28.097Z,1.50
2022-07-28T03:28:40.997Z,1.60
2022-07-28T03:28:53.938Z,1.70
2022-07-28T03:29:07.432Z,1.77
2022-07-28T03:29:20.290Z,1.70
2022-07-28T03:29:33.421Z,1.80
2022-07-28T03:29:49.187Z,1.90
2022-07-28T03:30:19.917Z,1.85
2022-07-28T03:30:36.943Z,1.75
2022-07-28T03:30:56.397Z,1.60
2022-07-28T03:31:10.499Z,1.70
2022-07-28T03:31:23.781Z,1.75
2022-07-28T03:31:36.755Z,1.80
2022-07-28T03:31:49.641Z,1.80
2022-07-28T03:32:02.544Z,1.73
2022-07-28T03:32:16.417Z,1.77
2022-07-28T03:32:29.336Z,1.77
2022-07-28T03:32:54.565Z,1.85
2022-07-28T03:33:07.425Z,1.60
2022-07-28T03:33:20.282Z,1.70
2022-07-28T03:33:49.440Z,1.62
2022-07-28T03:34:02.506Z,1.73
2022-07-28T03:34:15.785Z,1.75
2022-07-28T03:34:29.563Z,1.65
2022-07-28T03:34:46.683Z,1.62
2022-07-28T03:35:00.918Z,1.73
2022-07-28T03:35:33.976Z,1.70
2022-07-28T03:35:48.913Z,1.70
2022-07-28T03:36:05.649Z,1.80
2022-07-28T03:36:21.572Z,1.90
2022-07-28T03:36:37.080Z,1.80
2022-07-28T03:36:57.221Z,1.80
2022-07-28T03:37:12.876Z,1.77
2022-07-28T03:37:32.457Z,1.83
2022-07-28T03:38:27.343Z,1.90
2022-07-28T03:39:04.548Z,1.70
2022-07-28T03:39:17.618Z,1.70
2022-07-28T03:39:34.212Z,1.83
2022-07-28T03:39:48.174Z,1.80
2022-07-28T03:40:01.100Z,1.77
2022-07-28T03:40:14.106Z,1.85
2022-07-28T03:40:32.075Z,1.77
2022-07-28T03:40:46.162Z,1.80
2022-07-28T03:40:59.675Z,1.80
2022-07-28T03:41:12.597Z,1.67
2022-07-28T03:41:25.648Z,1.80
2022-07-28T03:41:39.013Z,1.87
2022-07-28T03:41:52.334Z,1.80
2022-07-28T03:42:05.251Z,1.80
2022-07-28T03:42:21.188Z,1.90
2022-07-28T03:42:34.337Z,1.90
2022-07-28T03:43:08.859Z,1.50
2022-07-28T03:43:24.111Z,1.58
2022-07-28T03:43:37.002Z,1.67
2022-07-28T03:43:49.881Z,1.80
2022-07-28T03:44:03.751Z,2.00
2022-07-28T03:44:17.712Z,2.00
2022-07-28T03:44:42.087Z,1.90
2022-07-28T03:44:55.244Z,1.98
2022-07-28T03:45:08.494Z,1.90
2022-07-28T03:45:21.497Z,1.80
2022-07-28T03:45:37.351Z,1.80
2022-07-28T03:45:53.941Z,1.75
2022-07-28T03:46:12.778Z,1.80
2022-07-28T03:46:27.853Z,1.80
2022-07-28T03:46:45.440Z,1.80
2022-07-28T03:46:58.423Z,1.65
2022-07-28T03:47:23.729Z,1.90
2022-07-28T03:47:36.596Z,1.90
2022-07-28T03:47:54.228Z,1.90
2022-07-28T03:48:07.097Z,1.85
2022-07-28T03:48:23.454Z,1.87
2022-07-28T03:48:36.374Z,1.80
2022-07-28T03:48:49.492Z,1.73
2022-07-28T03:49:02.448Z,1.80
2022-07-28T03:49:15.431Z,1.73
2022-07-28T03:49:28.406Z,1.60
2022-07-28T03:49:41.530Z,1.80
2022-07-28T03:49:55.428Z,1.90
2022-07-28T03:50:08.636Z,1.90
2022-07-28T03:50:31.835Z,2.00
2022-07-28T03:50:45.101Z,1.95
2022-07-28T03:50:58.353Z,1.77
2022-07-28T03:51:11.214Z,1.70
2022-07-28T03:51:25.621Z,1.60
2022-07-28T03:51:38.513Z,1.60
2022-07-28T03:51:51.370Z,1.70
2022-07-28T03:52:05.841Z,1.95
2022-07-28T03:52:18.800Z,1.92
2022-07-28T03:52:31.676Z,1.80
2022-07-28T03:52:44.531Z,1.92
2022-07-28T03:52:58.239Z,1.85
2022-07-28T03:53:14.895Z,1.80
2022-07-28T03:53:28.574Z,1.73
2022-07-28T03:53:41.450Z,1.70
2022-07-28T03:53:54.336Z,1.80
2022-07-28T03:54:07.261Z,1.80
2022-07-28T03:54:20.089Z,1.90